sensor_id;sensor_type;location;lat;lon;timestamp;P1;durP1;ratioP1;P2;durP2;ratioP2
78308;SDS011;67566;42.022;21.356;2023-06-14T00:00:18;18.65;;;10.57;;
78308;SDS011;67566;42.022;21.356;2023-06-14T00:02:43;14.23;;;9.30;;
78308;SDS011;67566;42.022;21.356;2023-06-14T00:05:09;12.10;;;9.93;;
78308;SDS011;67566;42.022;21.356;2023-06-14T00:07:40;12.18;;;9.30;;
78308;SDS011;67566;42.022;21.356;2023-06-14T00:10:10;15.38;;;10.52;;
78308;SDS011;67566;42.022;21.356;2023-06-14T00:12:36;13.20;;;10.25;;
78308;SDS011;67566;42.022;21.356;2023-06-14T00:15:03;11.80;;;9.25;;
78308;SDS011;67566;42.022;21.356;2023-06-14T00:17:28;11.07;;;8.35;;
78308;SDS011;67566;42.022;21.356;2023-06-14T00:19:57;10.90;;;8.32;;
78308;SDS011;67566;42.022;21.356;2023-06-14T00:22:24;13.15;;;8.77;;
78308;SDS011;67566;42.022;21.356;2023-06-14T00:24:50;9.65;;;7.22;;
78308;SDS011;67566;42.022;21.356;2023-06-14T00:27:16;12.48;;;7.57;;
78308;SDS011;67566;42.022;21.356;2023-06-14T00:29:42;14.55;;;8.10;;
78308;SDS011;67566;42.022;21.356;2023-06-14T00:32:07;13.68;;;7.85;;
78308;SDS011;67566;42.022;21.356;2023-06-14T00:34:33;10.55;;;8.13;;
78308;SDS011;67566;42.022;21.356;2023-06-14T00:36:59;13.25;;;8.68;;
78308;SDS011;67566;42.022;21.356;2023-06-14T00:39:24;12.63;;;8.45;;
78308;SDS011;67566;42.022;21.356;2023-06-14T00:41:50;15.18;;;7.80;;
78308;SDS011;67566;42.022;21.356;2023-06-14T00:44:16;12.48;;;9.02;;
78308;SDS011;67566;42.022;21.356;2023-06-14T00:46:42;12.10;;;8.07;;
78308;SDS011;67566;42.022;21.356;2023-06-14T00:49:09;13.75;;;7.95;;
78308;SDS011;67566;42.022;21.356;2023-06-14T00:51:35;15.68;;;8.52;;
78308;SDS011;67566;42.022;21.356;2023-06-14T00:54:02;11.32;;;8.23;;
78308;SDS011;67566;42.022;21.356;2023-06-14T00:56:28;10.75;;;8.05;;
78308;SDS011;67566;42.022;21.356;2023-06-14T00:58:54;12.25;;;8.23;;
78308;SDS011;67566;42.022;21.356;2023-06-14T01:01:21;11.75;;;8.30;;
78308;SDS011;67566;42.022;21.356;2023-06-14T01:03:47;11.20;;;7.97;;
78308;SDS011;67566;42.022;21.356;2023-06-14T01:06:15;11.13;;;7.80;;
78308;SDS011;67566;42.022;21.356;2023-06-14T01:08:54;11.93;;;8.05;;
78308;SDS011;67566;42.022;21.356;2023-06-14T01:11:31;13.18;;;7.75;;
78308;SDS011;67566;42.022;21.356;2023-06-14T01:14:01;12.85;;;8.15;;
78308;SDS011;67566;42.022;21.356;2023-06-14T01:16:28;11.82;;;8.38;;
78308;SDS011;67566;42.022;21.356;2023-06-14T01:18:54;11.70;;;8.52;;
78308;SDS011;67566;42.022;21.356;2023-06-14T01:21:22;14.80;;;9.15;;
78308;SDS011;67566;42.022;21.356;2023-06-14T01:23:49;15.38;;;9.60;;
78308;SDS011;67566;42.022;21.356;2023-06-14T01:26:21;12.52;;;9.35;;
78308;SDS011;67566;42.022;21.356;2023-06-14T01:28:48;14.82;;;9.98;;
78308;SDS011;67566;42.022;21.356;2023-06-14T01:31:20;14.73;;;9.43;;
78308;SDS011;67566;42.022;21.356;2023-06-14T01:33:47;16.27;;;9.05;;
78308;SDS011;67566;42.022;21.356;2023-06-14T01:36:14;16.10;;;10.52;;
78308;SDS011;67566;42.022;21.356;2023-06-14T01:38:41;17.17;;;9.60;;
78308;SDS011;67566;42.022;21.356;2023-06-14T01:41:09;18.48;;;10.98;;
78308;SDS011;67566;42.022;21.356;2023-06-14T01:43:35;16.17;;;10.40;;
78308;SDS011;67566;42.022;21.356;2023-06-14T01:46:01;14.30;;;10.43;;
78308;SDS011;67566;42.022;21.356;2023-06-14T01:48:28;14.73;;;10.02;;
78308;SDS011;67566;42.022;21.356;2023-06-14T01:50:53;11.77;;;8.68;;
78308;SDS011;67566;42.022;21.356;2023-06-14T01:53:19;17.45;;;9.85;;
78308;SDS011;67566;42.022;21.356;2023-06-14T01:55:45;14.38;;;9.60;;
78308;SDS011;67566;42.022;21.356;2023-06-14T01:58:13;13.45;;;8.88;;
78308;SDS011;67566;42.022;21.356;2023-06-14T02:00:41;12.32;;;8.63;;
78308;SDS011;67566;42.022;21.356;2023-06-14T02:03:08;12.75;;;9.15;;
78308;SDS011;67566;42.022;21.356;2023-06-14T02:05:33;11.18;;;8.23;;
78308;SDS011;67566;42.022;21.356;2023-06-14T02:07:59;11.75;;;8.10;;
78308;SDS011;67566;42.022;21.356;2023-06-14T02:10:25;14.10;;;9.35;;
78308;SDS011;67566;42.022;21.356;2023-06-14T02:12:51;13.57;;;8.88;;
78308;SDS011;67566;42.022;21.356;2023-06-14T02:15:16;12.50;;;8.70;;
78308;SDS011;67566;42.022;21.356;2023-06-14T02:17:43;13.00;;;9.18;;
78308;SDS011;67566;42.022;21.356;2023-06-14T02:20:09;13.88;;;8.52;;
78308;SDS011;67566;42.022;21.356;2023-06-14T02:22:35;11.88;;;8.82;;
78308;SDS011;67566;42.022;21.356;2023-06-14T02:25:01;13.10;;;8.63;;
78308;SDS011;67566;42.022;21.356;2023-06-14T02:27:27;14.35;;;9.25;;
78308;SDS011;67566;42.022;21.356;2023-06-14T02:29:52;14.32;;;9.73;;
78308;SDS011;67566;42.022;21.356;2023-06-14T02:32:17;12.35;;;9.70;;
78308;SDS011;67566;42.022;21.356;2023-06-14T02:34:43;10.68;;;7.88;;
78308;SDS011;67566;42.022;21.356;2023-06-14T02:37:08;14.00;;;8.77;;
78308;SDS011;67566;42.022;21.356;2023-06-14T02:39:34;13.70;;;8.70;;
78308;SDS011;67566;42.022;21.356;2023-06-14T02:42:00;20.92;;;10.43;;
78308;SDS011;67566;42.022;21.356;2023-06-14T02:44:26;20.85;;;11.10;;
78308;SDS011;67566;42.022;21.356;2023-06-14T02:46:55;17.00;;;10.15;;
78308;SDS011;67566;42.022;21.356;2023-06-14T02:49:21;17.05;;;10.18;;
78308;SDS011;67566;42.022;21.356;2023-06-14T02:51:47;18.33;;;11.15;;
78308;SDS011;67566;42.022;21.356;2023-06-14T02:54:13;20.10;;;10.48;;
78308;SDS011;67566;42.022;21.356;2023-06-14T02:56:38;16.73;;;10.75;;
78308;SDS011;67566;42.022;21.356;2023-06-14T02:59:04;13.75;;;9.93;;
78308;SDS011;67566;42.022;21.356;2023-06-14T03:01:29;15.68;;;10.07;;
78308;SDS011;67566;42.022;21.356;2023-06-14T03:03:58;13.10;;;9.30;;
78308;SDS011;67566;42.022;21.356;2023-06-14T03:06:24;13.25;;;8.65;;
78308;SDS011;67566;42.022;21.356;2023-06-14T03:08:50;13.55;;;9.80;;
78308;SDS011;67566;42.022;21.356;2023-06-14T03:11:16;13.10;;;9.18;;
78308;SDS011;67566;42.022;21.356;2023-06-14T03:13:45;13.80;;;10.70;;
78308;SDS011;67566;42.022;21.356;2023-06-14T03:16:11;12.77;;;8.80;;
78308;SDS011;67566;42.022;21.356;2023-06-14T03:18:37;13.85;;;9.45;;
78308;SDS011;67566;42.022;21.356;2023-06-14T03:21:03;16.40;;;10.05;;
78308;SDS011;67566;42.022;21.356;2023-06-14T03:23:28;17.70;;;10.07;;
78308;SDS011;67566;42.022;21.356;2023-06-14T03:25:54;15.35;;;10.80;;
78308;SDS011;67566;42.022;21.356;2023-06-14T03:28:20;14.88;;;10.68;;
78308;SDS011;67566;42.022;21.356;2023-06-14T03:30:46;17.90;;;12.27;;
78308;SDS011;67566;42.022;21.356;2023-06-14T03:33:12;18.80;;;11.43;;
78308;SDS011;67566;42.022;21.356;2023-06-14T03:35:37;21.05;;;13.60;;
78308;SDS011;67566;42.022;21.356;2023-06-14T03:38:03;20.55;;;13.60;;
78308;SDS011;67566;42.022;21.356;2023-06-14T03:40:28;21.70;;;12.35;;
78308;SDS011;67566;42.022;21.356;2023-06-14T03:42:54;23.13;;;12.20;;
78308;SDS011;67566;42.022;21.356;2023-06-14T03:45:20;16.30;;;11.40;;
78308;SDS011;67566;42.022;21.356;2023-06-14T03:47:46;22.00;;;13.13;;
78308;SDS011;67566;42.022;21.356;2023-06-14T03:50:11;18.27;;;12.57;;
78308;SDS011;67566;42.022;21.356;2023-06-14T03:52:37;21.02;;;14.27;;
78308;SDS011;67566;42.022;21.356;2023-06-14T03:55:03;19.52;;;12.55;;
78308;SDS011;67566;42.022;21.356;2023-06-14T03:57:29;21.73;;;13.25;;
78308;SDS011;67566;42.022;21.356;2023-06-14T03:59:55;15.10;;;10.73;;
78308;SDS011;67566;42.022;21.356;2023-06-14T04:02:21;18.77;;;11.35;;
78308;SDS011;67566;42.022;21.356;2023-06-14T04:04:47;18.70;;;10.82;;
78308;SDS011;67566;42.022;21.356;2023-06-14T04:07:13;17.13;;;11.20;;
78308;SDS011;67566;42.022;21.356;2023-06-14T04:09:45;16.80;;;11.25;;
78308;SDS011;67566;42.022;21.356;2023-06-14T04:12:11;19.58;;;11.20;;
78308;SDS011;67566;42.022;21.356;2023-06-14T04:14:37;17.25;;;11.70;;
78308;SDS011;67566;42.022;21.356;2023-06-14T04:17:03;15.18;;;11.20;;
78308;SDS011;67566;42.022;21.356;2023-06-14T04:19:29;16.90;;;11.05;;
78308;SDS011;67566;42.022;21.356;2023-06-14T04:21:54;18.60;;;10.48;;
78308;SDS011;67566;42.022;21.356;2023-06-14T04:24:20;18.00;;;11.07;;
78308;SDS011;67566;42.022;21.356;2023-06-14T04:26:45;15.43;;;10.00;;
78308;SDS011;67566;42.022;21.356;2023-06-14T04:29:13;14.65;;;10.05;;
78308;SDS011;67566;42.022;21.356;2023-06-14T04:31:41;14.70;;;10.15;;
78308;SDS011;67566;42.022;21.356;2023-06-14T04:34:10;17.38;;;10.32;;
78308;SDS011;67566;42.022;21.356;2023-06-14T04:36:40;15.80;;;9.98;;
78308;SDS011;67566;42.022;21.356;2023-06-14T04:39:17;16.15;;;10.70;;
78308;SDS011;67566;42.022;21.356;2023-06-14T04:41:43;18.75;;;10.70;;
78308;SDS011;67566;42.022;21.356;2023-06-14T04:44:09;17.63;;;10.45;;
78308;SDS011;67566;42.022;21.356;2023-06-14T04:46:35;16.33;;;11.80;;
78308;SDS011;67566;42.022;21.356;2023-06-14T04:49:10;15.23;;;10.15;;
78308;SDS011;67566;42.022;21.356;2023-06-14T04:51:39;16.77;;;11.20;;
78308;SDS011;67566;42.022;21.356;2023-06-14T04:54:05;16.92;;;11.25;;
78308;SDS011;67566;42.022;21.356;2023-06-14T04:56:34;20.10;;;10.77;;
78308;SDS011;67566;42.022;21.356;2023-06-14T04:59:02;14.38;;;9.40;;
78308;SDS011;67566;42.022;21.356;2023-06-14T05:01:29;16.60;;;9.40;;
78308;SDS011;67566;42.022;21.356;2023-06-14T05:03:56;15.57;;;10.15;;
78308;SDS011;67566;42.022;21.356;2023-06-14T05:06:22;13.27;;;9.52;;
78308;SDS011;67566;42.022;21.356;2023-06-14T05:08:48;14.60;;;9.57;;
78308;SDS011;67566;42.022;21.356;2023-06-14T05:11:14;15.18;;;10.35;;
78308;SDS011;67566;42.022;21.356;2023-06-14T05:13:40;16.25;;;10.18;;
78308;SDS011;67566;42.022;21.356;2023-06-14T05:16:06;12.07;;;9.18;;
78308;SDS011;67566;42.022;21.356;2023-06-14T05:18:32;15.00;;;9.77;;
78308;SDS011;67566;42.022;21.356;2023-06-14T05:20:59;13.75;;;9.70;;
78308;SDS011;67566;42.022;21.356;2023-06-14T05:25:54;13.25;;;8.52;;
78308;SDS011;67566;42.022;21.356;2023-06-14T05:28:19;15.30;;;9.30;;
78308;SDS011;67566;42.022;21.356;2023-06-14T05:30:45;12.40;;;8.77;;
78308;SDS011;67566;42.022;21.356;2023-06-14T05:33:11;13.80;;;9.98;;
78308;SDS011;67566;42.022;21.356;2023-06-14T05:35:36;15.52;;;8.90;;
78308;SDS011;67566;42.022;21.356;2023-06-14T05:38:03;11.32;;;8.77;;
78308;SDS011;67566;42.022;21.356;2023-06-14T05:40:28;12.90;;;9.68;;
78308;SDS011;67566;42.022;21.356;2023-06-14T05:42:54;12.60;;;9.32;;
78308;SDS011;67566;42.022;21.356;2023-06-14T05:45:19;12.90;;;8.68;;
78308;SDS011;67566;42.022;21.356;2023-06-14T05:47:45;11.75;;;8.23;;
78308;SDS011;67566;42.022;21.356;2023-06-14T05:50:10;11.32;;;7.50;;
78308;SDS011;67566;42.022;21.356;2023-06-14T05:52:36;12.05;;;7.85;;
78308;SDS011;67566;42.022;21.356;2023-06-14T05:55:02;11.13;;;8.43;;
78308;SDS011;67566;42.022;21.356;2023-06-14T05:57:28;10.45;;;8.55;;
78308;SDS011;67566;42.022;21.356;2023-06-14T05:59:54;9.57;;;6.45;;
78308;SDS011;67566;42.022;21.356;2023-06-14T06:02:20;10.40;;;7.25;;
78308;SDS011;67566;42.022;21.356;2023-06-14T06:04:45;11.00;;;7.25;;
78308;SDS011;67566;42.022;21.356;2023-06-14T06:07:11;10.88;;;7.07;;
78308;SDS011;67566;42.022;21.356;2023-06-14T06:09:36;10.38;;;6.80;;
78308;SDS011;67566;42.022;21.356;2023-06-14T06:12:02;8.77;;;7.07;;
78308;SDS011;67566;42.022;21.356;2023-06-14T06:14:28;12.18;;;7.40;;
78308;SDS011;67566;42.022;21.356;2023-06-14T06:16:53;11.82;;;7.45;;
78308;SDS011;67566;42.022;21.356;2023-06-14T06:19:19;13.85;;;7.25;;
78308;SDS011;67566;42.022;21.356;2023-06-14T06:21:45;8.60;;;7.05;;
78308;SDS011;67566;42.022;21.356;2023-06-14T06:24:10;9.68;;;6.50;;
78308;SDS011;67566;42.022;21.356;2023-06-14T06:26:36;9.63;;;6.80;;
78308;SDS011;67566;42.022;21.356;2023-06-14T06:29:01;9.60;;;6.95;;
78308;SDS011;67566;42.022;21.356;2023-06-14T06:31:27;9.82;;;7.22;;
78308;SDS011;67566;42.022;21.356;2023-06-14T06:33:53;11.13;;;7.32;;
78308;SDS011;67566;42.022;21.356;2023-06-14T06:36:19;11.02;;;8.15;;
78308;SDS011;67566;42.022;21.356;2023-06-14T06:38:46;10.98;;;9.00;;
78308;SDS011;67566;42.022;21.356;2023-06-14T06:41:12;9.13;;;7.45;;
78308;SDS011;67566;42.022;21.356;2023-06-14T06:43:38;10.65;;;8.20;;
78308;SDS011;67566;42.022;21.356;2023-06-14T06:46:03;9.48;;;8.15;;
78308;SDS011;67566;42.022;21.356;2023-06-14T06:48:28;12.32;;;9.75;;
78308;SDS011;67566;42.022;21.356;2023-06-14T06:50:54;11.35;;;8.40;;
78308;SDS011;67566;42.022;21.356;2023-06-14T06:53:20;12.55;;;8.38;;
78308;SDS011;67566;42.022;21.356;2023-06-14T06:55:45;14.68;;;9.63;;
78308;SDS011;67566;42.022;21.356;2023-06-14T06:58:11;13.40;;;8.00;;
78308;SDS011;67566;42.022;21.356;2023-06-14T07:00:37;13.07;;;7.95;;
78308;SDS011;67566;42.022;21.356;2023-06-14T07:03:03;11.10;;;7.82;;
78308;SDS011;67566;42.022;21.356;2023-06-14T07:05:29;12.48;;;8.88;;
78308;SDS011;67566;42.022;21.356;2023-06-14T07:07:54;13.00;;;9.15;;
78308;SDS011;67566;42.022;21.356;2023-06-14T07:10:20;14.00;;;8.32;;
78308;SDS011;67566;42.022;21.356;2023-06-14T07:12:46;17.00;;;11.73;;
78308;SDS011;67566;42.022;21.356;2023-06-14T07:15:11;18.27;;;12.60;;
78308;SDS011;67566;42.022;21.356;2023-06-14T07:17:36;14.65;;;10.38;;
78308;SDS011;67566;42.022;21.356;2023-06-14T07:20:03;15.68;;;9.45;;
78308;SDS011;67566;42.022;21.356;2023-06-14T07:22:38;20.02;;;15.10;;
78308;SDS011;67566;42.022;21.356;2023-06-14T07:25:06;14.43;;;8.65;;
78308;SDS011;67566;42.022;21.356;2023-06-14T07:27:33;10.00;;;7.55;;
78308;SDS011;67566;42.022;21.356;2023-06-14T07:29:59;13.50;;;9.02;;
78308;SDS011;67566;42.022;21.356;2023-06-14T07:32:24;11.32;;;7.75;;
78308;SDS011;67566;42.022;21.356;2023-06-14T07:34:50;11.32;;;8.52;;
78308;SDS011;67566;42.022;21.356;2023-06-14T07:37:15;11.80;;;8.70;;
78308;SDS011;67566;42.022;21.356;2023-06-14T07:39:41;11.82;;;8.75;;
78308;SDS011;67566;42.022;21.356;2023-06-14T07:42:06;11.25;;;8.63;;
78308;SDS011;67566;42.022;21.356;2023-06-14T07:44:32;10.60;;;8.35;;
78308;SDS011;67566;42.022;21.356;2023-06-14T07:46:57;12.55;;;9.23;;
78308;SDS011;67566;42.022;21.356;2023-06-14T07:49:25;13.38;;;9.57;;
78308;SDS011;67566;42.022;21.356;2023-06-14T07:51:50;13.20;;;8.85;;
78308;SDS011;67566;42.022;21.356;2023-06-14T07:54:16;12.30;;;8.40;;
78308;SDS011;67566;42.022;21.356;2023-06-14T07:56:42;13.07;;;9.02;;
78308;SDS011;67566;42.022;21.356;2023-06-14T07:59:08;10.25;;;6.90;;
78308;SDS011;67566;42.022;21.356;2023-06-14T08:01:34;10.60;;;8.52;;
78308;SDS011;67566;42.022;21.356;2023-06-14T08:04:00;11.50;;;9.10;;
78308;SDS011;67566;42.022;21.356;2023-06-14T08:06:26;16.13;;;9.10;;
78308;SDS011;67566;42.022;21.356;2023-06-14T08:08:51;12.63;;;9.07;;
78308;SDS011;67566;42.022;21.356;2023-06-14T08:11:17;10.52;;;8.02;;
78308;SDS011;67566;42.022;21.356;2023-06-14T08:13:42;10.52;;;7.95;;
78308;SDS011;67566;42.022;21.356;2023-06-14T08:16:08;9.95;;;7.70;;
78308;SDS011;67566;42.022;21.356;2023-06-14T08:18:33;10.85;;;7.20;;
78308;SDS011;67566;42.022;21.356;2023-06-14T08:20:58;11.63;;;7.40;;
78308;SDS011;67566;42.022;21.356;2023-06-14T08:23:24;15.50;;;8.95;;
78308;SDS011;67566;42.022;21.356;2023-06-14T08:25:50;13.00;;;8.50;;
78308;SDS011;67566;42.022;21.356;2023-06-14T08:28:15;14.45;;;9.07;;
78308;SDS011;67566;42.022;21.356;2023-06-14T08:30:41;10.00;;;7.07;;
78308;SDS011;67566;42.022;21.356;2023-06-14T08:33:07;10.32;;;6.60;;
78308;SDS011;67566;42.022;21.356;2023-06-14T08:35:33;10.05;;;6.47;;
78308;SDS011;67566;42.022;21.356;2023-06-14T08:38:01;11.93;;;7.40;;
78308;SDS011;67566;42.022;21.356;2023-06-14T08:40:26;10.63;;;7.78;;
78308;SDS011;67566;42.022;21.356;2023-06-14T08:42:54;9.88;;;7.70;;
78308;SDS011;67566;42.022;21.356;2023-06-14T08:45:20;11.57;;;7.68;;
78308;SDS011;67566;42.022;21.356;2023-06-14T08:47:47;14.50;;;7.35;;
78308;SDS011;67566;42.022;21.356;2023-06-14T08:50:20;12.90;;;7.20;;
78308;SDS011;67566;42.022;21.356;2023-06-14T08:52:48;9.23;;;6.13;;
78308;SDS011;67566;42.022;21.356;2023-06-14T08:55:18;10.13;;;7.30;;
78308;SDS011;67566;42.022;21.356;2023-06-14T08:57:45;9.70;;;6.90;;
78308;SDS011;67566;42.022;21.356;2023-06-14T09:00:13;8.88;;;6.85;;
78308;SDS011;67566;42.022;21.356;2023-06-14T09:02:39;8.50;;;6.50;;
78308;SDS011;67566;42.022;21.356;2023-06-14T09:05:08;9.35;;;5.78;;
78308;SDS011;67566;42.022;21.356;2023-06-14T09:07:43;8.88;;;6.03;;
78308;SDS011;67566;42.022;21.356;2023-06-14T09:10:10;8.02;;;5.82;;
78308;SDS011;67566;42.022;21.356;2023-06-14T09:12:37;8.75;;;5.38;;
78308;SDS011;67566;42.022;21.356;2023-06-14T09:15:05;7.55;;;5.07;;
78308;SDS011;67566;42.022;21.356;2023-06-14T09:17:34;7.90;;;5.65;;
78308;SDS011;67566;42.022;21.356;2023-06-14T09:20:06;8.57;;;6.13;;
78308;SDS011;67566;42.022;21.356;2023-06-14T09:22:38;9.52;;;6.07;;
78308;SDS011;67566;42.022;21.356;2023-06-14T09:25:05;6.90;;;5.65;;
78308;SDS011;67566;42.022;21.356;2023-06-14T09:27:31;8.07;;;7.18;;
78308;SDS011;67566;42.022;21.356;2023-06-14T09:29:57;9.00;;;6.63;;
78308;SDS011;67566;42.022;21.356;2023-06-14T09:32:23;10.65;;;6.65;;
78308;SDS011;67566;42.022;21.356;2023-06-14T09:34:50;9.30;;;5.72;;
78308;SDS011;67566;42.022;21.356;2023-06-14T09:37:29;9.38;;;6.65;;
78308;SDS011;67566;42.022;21.356;2023-06-14T09:39:57;8.10;;;6.53;;
78308;SDS011;67566;42.022;21.356;2023-06-14T09:42:23;6.50;;;5.43;;
78308;SDS011;67566;42.022;21.356;2023-06-14T09:44:55;7.50;;;5.68;;
78308;SDS011;67566;42.022;21.356;2023-06-14T09:47:21;6.97;;;5.30;;
78308;SDS011;67566;42.022;21.356;2023-06-14T09:49:48;5.68;;;4.80;;
78308;SDS011;67566;42.022;21.356;2023-06-14T09:52:17;7.30;;;4.70;;
78308;SDS011;67566;42.022;21.356;2023-06-14T09:54:44;7.30;;;5.15;;
78308;SDS011;67566;42.022;21.356;2023-06-14T09:57:15;9.70;;;5.45;;
78308;SDS011;67566;42.022;21.356;2023-06-14T09:59:45;9.30;;;5.70;;
78308;SDS011;67566;42.022;21.356;2023-06-14T10:04:46;7.50;;;5.13;;
78308;SDS011;67566;42.022;21.356;2023-06-14T10:07:17;6.75;;;5.25;;
78308;SDS011;67566;42.022;21.356;2023-06-14T10:09:45;6.85;;;5.18;;
78308;SDS011;67566;42.022;21.356;2023-06-14T10:12:17;6.45;;;4.93;;
78308;SDS011;67566;42.022;21.356;2023-06-14T10:14:49;7.90;;;5.38;;
78308;SDS011;67566;42.022;21.356;2023-06-14T10:17:40;6.90;;;5.40;;
78308;SDS011;67566;42.022;21.356;2023-06-14T10:20:19;7.47;;;4.93;;
78308;SDS011;67566;42.022;21.356;2023-06-14T10:22:59;7.57;;;4.70;;
78308;SDS011;67566;42.022;21.356;2023-06-14T10:25:30;6.03;;;4.15;;
78308;SDS011;67566;42.022;21.356;2023-06-14T10:28:02;7.15;;;4.15;;
78308;SDS011;67566;42.022;21.356;2023-06-14T10:30:39;6.03;;;4.80;;
78308;SDS011;67566;42.022;21.356;2023-06-14T10:33:05;5.10;;;4.28;;
78308;SDS011;67566;42.022;21.356;2023-06-14T10:35:32;6.70;;;4.30;;
78308;SDS011;67566;42.022;21.356;2023-06-14T10:38:10;7.43;;;5.00;;
78308;SDS011;67566;42.022;21.356;2023-06-14T10:40:37;6.82;;;4.53;;
78308;SDS011;67566;42.022;21.356;2023-06-14T10:43:22;5.68;;;4.90;;
78308;SDS011;67566;42.022;21.356;2023-06-14T10:48:45;5.93;;;4.20;;
78308;SDS011;67566;42.022;21.356;2023-06-14T10:51:17;5.85;;;4.90;;
78308;SDS011;67566;42.022;21.356;2023-06-14T10:53:47;6.07;;;5.07;;
78308;SDS011;67566;42.022;21.356;2023-06-14T10:56:29;7.22;;;5.10;;
78308;SDS011;67566;42.022;21.356;2023-06-14T10:58:56;6.53;;;5.10;;
78308;SDS011;67566;42.022;21.356;2023-06-14T11:01:31;5.68;;;4.95;;
78308;SDS011;67566;42.022;21.356;2023-06-14T11:04:17;6.60;;;4.90;;
78308;SDS011;67566;42.022;21.356;2023-06-14T11:09:18;7.78;;;5.32;;
78308;SDS011;67566;42.022;21.356;2023-06-14T11:12:06;6.43;;;4.90;;
78308;SDS011;67566;42.022;21.356;2023-06-14T11:14:37;6.20;;;4.88;;
78308;SDS011;67566;42.022;21.356;2023-06-14T11:17:03;5.65;;;5.05;;
78308;SDS011;67566;42.022;21.356;2023-06-14T11:19:29;5.80;;;4.78;;
78308;SDS011;67566;42.022;21.356;2023-06-14T11:21:55;6.28;;;5.03;;
78308;SDS011;67566;42.022;21.356;2023-06-14T11:24:20;6.90;;;6.13;;
78308;SDS011;67566;42.022;21.356;2023-06-14T11:26:46;5.78;;;5.18;;
78308;SDS011;67566;42.022;21.356;2023-06-14T11:29:14;6.18;;;5.20;;
78308;SDS011;67566;42.022;21.356;2023-06-14T11:31:44;6.10;;;5.25;;
78308;SDS011;67566;42.022;21.356;2023-06-14T11:34:11;6.25;;;4.45;;
78308;SDS011;67566;42.022;21.356;2023-06-14T11:36:38;6.55;;;4.82;;
78308;SDS011;67566;42.022;21.356;2023-06-14T11:39:04;5.72;;;4.35;;
78308;SDS011;67566;42.022;21.356;2023-06-14T11:41:32;5.38;;;4.40;;
78308;SDS011;67566;42.022;21.356;2023-06-14T11:43:59;7.85;;;4.40;;
78308;SDS011;67566;42.022;21.356;2023-06-14T11:46:26;6.32;;;5.68;;
78308;SDS011;67566;42.022;21.356;2023-06-14T11:48:51;8.60;;;5.10;;
78308;SDS011;67566;42.022;21.356;2023-06-14T11:51:17;7.95;;;5.18;;
78308;SDS011;67566;42.022;21.356;2023-06-14T11:53:44;7.38;;;6.28;;
78308;SDS011;67566;42.022;21.356;2023-06-14T11:56:10;6.80;;;5.35;;
78308;SDS011;67566;42.022;21.356;2023-06-14T11:58:36;6.75;;;5.32;;
78308;SDS011;67566;42.022;21.356;2023-06-14T12:01:05;6.90;;;5.50;;
78308;SDS011;67566;42.022;21.356;2023-06-14T12:03:30;6.43;;;5.50;;
78308;SDS011;67566;42.022;21.356;2023-06-14T12:06:06;6.65;;;5.82;;
78308;SDS011;67566;42.022;21.356;2023-06-14T12:08:33;8.80;;;5.90;;
78308;SDS011;67566;42.022;21.356;2023-06-14T12:11:12;24.02;;;7.28;;
78308;SDS011;67566;42.022;21.356;2023-06-14T12:13:41;8.70;;;6.75;;
78308;SDS011;67566;42.022;21.356;2023-06-14T12:16:08;11.07;;;6.38;;
78308;SDS011;67566;42.022;21.356;2023-06-14T12:18:35;8.48;;;6.68;;
78308;SDS011;67566;42.022;21.356;2023-06-14T12:21:05;11.30;;;10.18;;
78308;SDS011;67566;42.022;21.356;2023-06-14T12:23:47;11.98;;;10.75;;
78308;SDS011;67566;42.022;21.356;2023-06-14T12:26:15;14.10;;;12.65;;
78308;SDS011;67566;42.022;21.356;2023-06-14T12:28:42;13.35;;;11.98;;
78308;SDS011;67566;42.022;21.356;2023-06-14T12:31:09;13.60;;;11.25;;
78308;SDS011;67566;42.022;21.356;2023-06-14T12:33:36;11.10;;;9.40;;
78308;SDS011;67566;42.022;21.356;2023-06-14T12:36:05;10.15;;;9.05;;
78308;SDS011;67566;42.022;21.356;2023-06-14T12:38:32;10.60;;;9.38;;
78308;SDS011;67566;42.022;21.356;2023-06-14T12:40:58;11.27;;;8.60;;
78308;SDS011;67566;42.022;21.356;2023-06-14T12:43:24;11.80;;;9.50;;
78308;SDS011;67566;42.022;21.356;2023-06-14T12:45:49;12.52;;;9.55;;
78308;SDS011;67566;42.022;21.356;2023-06-14T12:48:15;12.38;;;10.18;;
78308;SDS011;67566;42.022;21.356;2023-06-14T12:50:41;9.60;;;8.30;;
78308;SDS011;67566;42.022;21.356;2023-06-14T12:53:06;9.00;;;8.10;;
78308;SDS011;67566;42.022;21.356;2023-06-14T12:55:32;9.65;;;7.88;;
78308;SDS011;67566;42.022;21.356;2023-06-14T12:57:58;8.98;;;8.07;;
78308;SDS011;67566;42.022;21.356;2023-06-14T13:00:23;8.07;;;7.25;;
78308;SDS011;67566;42.022;21.356;2023-06-14T13:02:51;10.57;;;7.28;;
78308;SDS011;67566;42.022;21.356;2023-06-14T13:05:17;9.50;;;8.02;;
78308;SDS011;67566;42.022;21.356;2023-06-14T13:07:42;8.18;;;6.78;;
78308;SDS011;67566;42.022;21.356;2023-06-14T13:10:08;8.27;;;7.35;;
78308;SDS011;67566;42.022;21.356;2023-06-14T13:12:34;8.48;;;7.63;;
78308;SDS011;67566;42.022;21.356;2023-06-14T13:14:59;9.45;;;7.90;;
78308;SDS011;67566;42.022;21.356;2023-06-14T13:17:25;12.18;;;8.27;;
78308;SDS011;67566;42.022;21.356;2023-06-14T13:19:50;10.02;;;8.15;;
78308;SDS011;67566;42.022;21.356;2023-06-14T13:22:16;9.52;;;7.95;;
78308;SDS011;67566;42.022;21.356;2023-06-14T13:24:42;11.63;;;8.43;;
78308;SDS011;67566;42.022;21.356;2023-06-14T13:27:07;12.20;;;8.90;;
78308;SDS011;67566;42.022;21.356;2023-06-14T13:29:33;11.15;;;9.18;;
78308;SDS011;67566;42.022;21.356;2023-06-14T13:32:01;12.02;;;9.20;;
78308;SDS011;67566;42.022;21.356;2023-06-14T13:34:27;11.82;;;8.85;;
78308;SDS011;67566;42.022;21.356;2023-06-14T13:36:52;11.18;;;9.27;;
78308;SDS011;67566;42.022;21.356;2023-06-14T13:39:18;9.00;;;8.10;;
78308;SDS011;67566;42.022;21.356;2023-06-14T13:41:44;8.32;;;7.35;;
78308;SDS011;67566;42.022;21.356;2023-06-14T13:44:10;9.70;;;8.18;;
78308;SDS011;67566;42.022;21.356;2023-06-14T13:46:39;8.77;;;7.38;;
78308;SDS011;67566;42.022;21.356;2023-06-14T13:49:04;10.68;;;8.88;;
78308;SDS011;67566;42.022;21.356;2023-06-14T13:51:30;13.50;;;9.77;;
78308;SDS011;67566;42.022;21.356;2023-06-14T13:53:56;12.70;;;8.55;;
78308;SDS011;67566;42.022;21.356;2023-06-14T13:56:21;10.23;;;8.35;;
78308;SDS011;67566;42.022;21.356;2023-06-14T13:58:50;12.48;;;9.00;;
78308;SDS011;67566;42.022;21.356;2023-06-14T14:01:16;13.18;;;9.38;;
78308;SDS011;67566;42.022;21.356;2023-06-14T14:03:44;11.93;;;9.40;;
78308;SDS011;67566;42.022;21.356;2023-06-14T14:06:11;10.90;;;8.73;;
78308;SDS011;67566;42.022;21.356;2023-06-14T14:08:36;12.02;;;8.98;;
78308;SDS011;67566;42.022;21.356;2023-06-14T14:11:02;10.68;;;8.48;;
78308;SDS011;67566;42.022;21.356;2023-06-14T14:13:28;11.02;;;8.85;;
78308;SDS011;67566;42.022;21.356;2023-06-14T14:15:53;11.95;;;8.75;;
78308;SDS011;67566;42.022;21.356;2023-06-14T14:18:19;10.80;;;9.27;;
78308;SDS011;67566;42.022;21.356;2023-06-14T14:20:48;11.48;;;9.07;;
78308;SDS011;67566;42.022;21.356;2023-06-14T14:23:13;12.27;;;10.25;;
78308;SDS011;67566;42.022;21.356;2023-06-14T14:25:39;14.07;;;10.05;;
78308;SDS011;67566;42.022;21.356;2023-06-14T14:28:04;11.60;;;9.60;;
78308;SDS011;67566;42.022;21.356;2023-06-14T14:30:30;13.82;;;10.30;;
78308;SDS011;67566;42.022;21.356;2023-06-14T14:32:55;16.08;;;10.88;;